createdAt,value
2023-04-27T04:01:44.466Z,5.93
2023-04-27T04:04:29.573Z,5.88
2023-04-27T04:07:14.724Z,5.81
2023-04-27T04:09:59.564Z,6.07
2023-04-27T04:12:44.476Z,5.97
2023-04-27T04:15:29.241Z,5.88
2023-04-27T04:18:14.275Z,6.02
2023-04-27T04:20:59.045Z,6.26
2023-04-27T04:23:44.056Z,6.20
2023-04-27T04:26:28.960Z,6.09
2023-04-27T04:29:13.922Z,6.04
2023-04-27T04:31:58.783Z,6.21
2023-04-27T04:34:43.603Z,6.04
2023-04-27T04:37:28.621Z,6.15
2023-04-27T04:40:13.423Z,5.80
2023-04-27T04:42:58.218Z,6.28
2023-04-27T04:45:42.960Z,6.24
2023-04-27T04:48:28.038Z,6.06
2023-04-27T04:51:12.804Z,6.03
2023-04-27T04:53:58.630Z,6.24
2023-04-27T04:56:44.729Z,6.36
2023-04-27T04:59:31.516Z,5.93
2023-04-27T05:02:16.701Z,5.97
2023-04-27T05:05:01.414Z,6.27
2023-04-27T05:07:46.408Z,6.45
2023-04-27T05:10:31.386Z,6.44
2023-04-27T05:13:16.155Z,6.60
2023-04-27T05:16:01.222Z,6.43
2023-04-27T05:18:46.082Z,6.49
2023-04-27T05:21:31.134Z,6.63
2023-04-27T05:24:15.812Z,6.68
2023-04-27T05:27:02.313Z,7.04
2023-04-27T05:29:46.987Z,7.23
2023-04-27T05:32:31.969Z,7.55
2023-04-27T05:35:16.830Z,7.53
2023-04-27T05:38:01.722Z,7.63
2023-04-27T05:40:46.676Z,7.70
2023-04-27T05:43:31.548Z,7.68
2023-04-27T05:46:16.541Z,7.84
2023-04-27T05:49:01.245Z,8.00
2023-04-27T05:51:46.047Z,8.35
2023-04-27T05:54:30.991Z,8.64
2023-04-27T05:57:15.956Z,8.94
2023-04-27T06:00:00.911Z,9.21
2023-04-27T06:02:45.921Z,9.48
2023-04-27T06:05:30.913Z,9.62
2023-04-27T06:08:15.517Z,9.81
2023-04-27T06:11:00.495Z,10.05
2023-04-27T06:13:45.265Z,10.00
2023-04-27T06:16:30.254Z,10.25
2023-04-27T06:19:15.271Z,10.53
2023-04-27T06:22:00.348Z,10.75
2023-04-27T06:24:45.320Z,10.60
2023-04-27T06:27:30.234Z,10.41
2023-04-27T06:30:15.187Z,10.84
2023-04-27T06:33:00.077Z,11.03
2023-04-27T06:35:47.222Z,11.22
2023-04-27T06:38:32.548Z,11.42
2023-04-27T06:41:17.426Z,11.20
2023-04-27T06:44:02.371Z,11.32
2023-04-27T06:46:47.262Z,11.64
2023-04-27T06:49:32.134Z,11.32
2023-04-27T06:52:16.994Z,11.63
2023-04-27T06:55:01.982Z,11.82
2023-04-27T06:57:47.051Z,11.57
2023-04-27T07:00:31.809Z,10.98
2023-04-27T07:03:16.838Z,11.67
2023-04-27T07:06:01.451Z,12.05
2023-04-27T07:08:46.652Z,12.04
2023-04-27T07:11:31.346Z,12.36
2023-04-27T07:14:16.376Z,12.09
2023-04-27T07:17:01.243Z,12.38
2023-04-27T07:19:46.304Z,12.49
2023-04-27T07:22:31.100Z,12.28
2023-04-27T07:25:16.068Z,12.12
2023-04-27T07:28:01.029Z,12.02
2023-04-27T07:30:45.931Z,11.99
2023-04-27T07:33:30.711Z,11.43
2023-04-27T07:36:15.633Z,11.71
2023-04-27T07:39:00.560Z,11.52
2023-04-27T07:41:45.353Z,11.88
2023-04-27T07:44:30.363Z,12.05
2023-04-27T07:47:15.307Z,12.26
2023-04-27T07:50:00.275Z,12.14
2023-04-27T07:52:45.134Z,12.46
2023-04-27T07:55:30.045Z,13.08
2023-04-27T07:58:15.062Z,13.30
2023-04-27T08:00:59.881Z,13.05
2023-04-27T08:03:45.034Z,12.57
2023-04-27T08:06:30.824Z,12.61
2023-04-27T08:09:16.270Z,12.84
2023-04-27T08:12:00.996Z,12.70
2023-04-27T08:14:45.861Z,12.61
2023-04-27T08:17:30.893Z,12.27
2023-04-27T08:20:15.796Z,13.05
2023-04-27T08:23:00.761Z,12.37
2023-04-27T08:25:45.573Z,11.88
2023-04-27T08:28:30.580Z,11.83
2023-04-27T08:31:15.439Z,12.03
2023-04-27T08:34:00.277Z,11.88
2023-04-27T08:36:45.199Z,12.73
2023-04-27T08:39:30.163Z,12.95
2023-04-27T08:42:15.020Z,12.86
2023-04-27T08:44:59.829Z,12.70
2023-04-27T08:47:44.780Z,12.82
2023-04-27T08:50:29.544Z,12.15
2023-04-27T08:53:14.578Z,12.57
2023-04-27T08:55:59.142Z,13.32
2023-04-27T08:58:44.029Z,13.94
2023-04-27T09:01:28.847Z,13.41
2023-04-27T09:04:13.986Z,13.77
2023-04-27T09:06:58.617Z,13.50
2023-04-27T09:09:43.443Z,13.94
2023-04-27T09:12:28.414Z,13.95
2023-04-27T09:15:13.260Z,13.87
2023-04-27T09:17:58.411Z,14.38
2023-04-27T09:20:43.124Z,14.36
2023-04-27T09:23:27.949Z,14.24
2023-04-27T09:26:12.720Z,14.62
2023-04-27T09:28:57.694Z,14.86
2023-04-27T09:31:42.655Z,14.49
2023-04-27T09:34:27.364Z,14.61
2023-04-27T09:37:12.251Z,14.85
2023-04-27T09:39:57.002Z,14.44
2023-04-27T09:42:41.810Z,14.02
2023-04-27T09:45:26.852Z,14.18
2023-04-27T09:48:11.638Z,13.89
2023-04-27T09:50:56.396Z,14.21
2023-04-27T09:53:41.255Z,13.96
2023-04-27T09:56:27.184Z,14.77
2023-04-27T09:59:12.346Z,14.82
2023-04-27T10:01:56.968Z,15.52
2023-04-27T10:04:41.843Z,16.10
2023-04-27T10:07:26.683Z,16.40
2023-04-27T10:10:11.463Z,15.72
2023-04-27T10:12:56.333Z,14.99
2023-04-27T10:15:41.120Z,15.48
2023-04-27T10:18:26.048Z,15.29
2023-04-27T10:21:11.084Z,15.44
2023-04-27T10:23:55.872Z,15.03
2023-04-27T10:26:40.869Z,14.76
2023-04-27T10:29:25.604Z,15.27
2023-04-27T10:32:10.471Z,15.43
2023-04-27T10:34:55.267Z,15.74
2023-04-27T10:37:40.228Z,15.99
2023-04-27T10:40:24.968Z,16.28
2023-04-27T10:43:09.984Z,15.91
2023-04-27T10:45:54.954Z,16.17
2023-04-27T10:48:39.838Z,15.92
2023-04-27T10:51:24.790Z,16.37
2023-04-27T10:54:09.702Z,16.08
2023-04-27T10:56:54.839Z,15.22
2023-04-27T10:59:39.405Z,16.15
2023-04-27T11:02:24.469Z,15.51
2023-04-27T11:05:09.118Z,15.52
2023-04-27T11:07:54.096Z,15.91
2023-04-27T11:10:38.913Z,15.88
2023-04-27T11:13:23.771Z,16.53
2023-04-27T11:16:08.835Z,16.05
2023-04-27T11:18:53.614Z,15.57
2023-04-27T11:21:38.621Z,16.22
2023-04-27T11:24:23.390Z,16.51
2023-04-27T11:27:08.327Z,15.59
2023-04-27T11:29:53.032Z,15.53
2023-04-27T11:32:37.994Z,15.65
2023-04-27T11:35:22.811Z,16.15
2023-04-27T11:38:07.800Z,15.85
2023-04-27T11:40:52.681Z,15.63
2023-04-27T11:43:37.404Z,15.74
2023-04-27T11:46:22.454Z,16.56
2023-04-27T11:49:07.132Z,16.34
2023-04-27T11:51:52.008Z,15.91
2023-04-27T11:54:36.846Z,15.64
2023-04-27T11:57:21.836Z,16.17
2023-04-27T12:00:06.687Z,16.45
2023-04-27T12:02:51.731Z,16.20
2023-04-27T12:05:36.760Z,15.91
2023-04-27T12:08:21.587Z,15.85
2023-04-27T12:11:06.503Z,16.28
2023-04-27T12:13:51.255Z,16.45
2023-04-27T12:16:36.208Z,16.66
2023-04-27T12:19:20.867Z,16.49
2023-04-27T12:22:05.723Z,16.86
2023-04-27T12:24:50.562Z,18.07
2023-04-27T12:27:35.725Z,18.08
2023-04-27T12:30:20.688Z,18.76
2023-04-27T12:33:05.496Z,19.78
2023-04-27T12:35:50.346Z,18.40
2023-04-27T12:38:35.331Z,19.64
2023-04-27T12:41:20.051Z,20.50
2023-04-27T12:44:04.780Z,20.46
2023-04-27T12:46:49.735Z,20.84
2023-04-27T12:49:34.400Z,18.81
2023-04-27T12:52:19.310Z,18.74
2023-04-27T12:55:04.171Z,18.48
2023-04-27T12:57:48.989Z,18.22
2023-04-27T13:00:33.894Z,17.87
2023-04-27T13:03:18.932Z,17.93
2023-04-27T13:06:03.792Z,18.13
2023-04-27T13:08:48.621Z,17.85
2023-04-27T13:11:33.607Z,18.71
2023-04-27T13:14:18.321Z,18.92
2023-04-27T13:17:03.316Z,19.95
2023-04-27T13:19:48.197Z,20.41
2023-04-27T13:22:33.115Z,19.48
2023-04-27T13:25:18.043Z,19.85
2023-04-27T13:28:02.797Z,19.47
2023-04-27T13:30:47.673Z,19.01
2023-04-27T13:33:32.611Z,18.30
2023-04-27T13:36:17.502Z,18.56
2023-04-27T13:39:02.186Z,18.71
2023-04-27T13:41:47.184Z,18.92
2023-04-27T13:44:32.017Z,19.43
2023-04-27T13:47:17.014Z,19.29
2023-04-27T13:50:01.880Z,19.77
2023-04-27T13:52:46.896Z,18.89
2023-04-27T13:55:31.730Z,19.10
2023-04-27T13:58:16.559Z,18.90
2023-04-27T14:01:01.542Z,18.54
2023-04-27T14:03:46.551Z,18.63
2023-04-27T14:06:31.271Z,18.86
2023-04-27T14:09:16.313Z,18.71
2023-04-27T14:12:01.504Z,19.34
2023-04-27T14:14:46.266Z,18.61
2023-04-27T14:17:31.141Z,19.35
2023-04-27T14:20:16.026Z,19.28
2023-04-27T14:23:00.841Z,18.20
2023-04-27T14:25:45.831Z,18.14
2023-04-27T14:28:30.629Z,18.72
2023-04-27T14:31:15.534Z,18.12
2023-04-27T14:34:00.355Z,17.79
2023-04-27T14:36:45.301Z,18.96
2023-04-27T14:39:30.203Z,18.99
2023-04-27T14:42:14.961Z,18.46
2023-04-27T14:45:00.031Z,19.51
2023-04-27T14:47:44.873Z,18.68
2023-04-27T14:50:29.794Z,17.84
2023-04-27T14:53:14.564Z,17.76
2023-04-27T14:55:59.351Z,17.81
2023-04-27T14:58:44.174Z,16.96
2023-04-27T15:01:29.183Z,17.65
2023-04-27T15:04:14.104Z,17.91
2023-04-27T15:06:58.841Z,18.39
2023-04-27T15:09:43.816Z,18.52
2023-04-27T15:12:28.664Z,17.57
2023-04-27T15:15:13.496Z,18.32
2023-04-27T15:17:58.337Z,18.99
2023-04-27T15:20:44.645Z,19.33
2023-04-27T15:23:29.480Z,19.81
2023-04-27T15:26:14.373Z,19.41
2023-04-27T15:28:59.336Z,19.34
2023-04-27T15:31:44.179Z,19.67
2023-04-27T15:34:29.072Z,19.42
2023-04-27T15:37:13.854Z,19.01
2023-04-27T15:39:58.788Z,19.59
2023-04-27T15:42:43.577Z,19.17
2023-04-27T15:45:28.591Z,19.65
2023-04-27T15:48:13.362Z,19.16
2023-04-27T15:50:58.152Z,18.92
2023-04-27T15:53:43.069Z,18.18
2023-04-27T15:56:30.497Z,17.77
2023-04-27T15:59:16.034Z,18.42
2023-04-27T16:02:01.152Z,18.55
2023-04-27T16:04:46.065Z,18.86
2023-04-27T16:07:30.953Z,18.91
2023-04-27T16:10:15.809Z,18.55
2023-04-27T16:13:00.821Z,18.09
2023-04-27T16:15:45.749Z,17.18
2023-04-27T16:18:30.797Z,17.80
2023-04-27T16:21:15.638Z,18.69
2023-04-27T16:24:00.536Z,18.63
2023-04-27T16:26:45.427Z,18.90
2023-04-27T16:29:30.305Z,18.63
2023-04-27T16:32:15.338Z,17.79
2023-04-27T16:35:00.182Z,17.31
2023-04-27T16:37:45.050Z,17.08
2023-04-27T16:40:29.932Z,16.87
2023-04-27T16:43:14.933Z,17.31
2023-04-27T16:45:59.838Z,17.62
2023-04-27T16:48:44.661Z,16.75
2023-04-27T16:51:29.396Z,16.94
2023-04-27T16:54:14.406Z,17.01
2023-04-27T16:56:59.205Z,17.43
2023-04-27T16:59:43.955Z,17.36
2023-04-27T17:02:29.056Z,17.38
2023-04-27T17:05:13.876Z,17.20
2023-04-27T17:07:58.789Z,16.82
2023-04-27T17:10:43.690Z,16.71
2023-04-27T17:13:28.572Z,16.60
2023-04-27T17:16:13.568Z,16.77
2023-04-27T17:18:58.349Z,16.76
2023-04-27T17:21:43.338Z,16.01
2023-04-27T17:24:28.309Z,16.22
2023-04-27T17:27:13.295Z,16.06
2023-04-27T17:29:58.256Z,16.06
2023-04-27T17:32:43.117Z,15.65
2023-04-27T17:35:27.920Z,15.40
2023-04-27T17:38:12.915Z,15.70
2023-04-27T17:40:57.846Z,15.32
2023-04-27T17:43:42.717Z,15.39
2023-04-27T17:46:27.663Z,15.41
2023-04-27T17:49:12.516Z,15.57
2023-04-27T17:51:57.313Z,15.56
2023-04-27T17:54:42.144Z,15.76
2023-04-27T17:57:26.981Z,15.91
2023-04-27T18:00:11.629Z,15.63
2023-04-27T18:02:56.572Z,15.58
2023-04-27T18:05:41.398Z,15.50
2023-04-27T18:08:26.475Z,15.70
2023-04-27T18:11:11.443Z,15.65
2023-04-27T18:13:56.386Z,15.42
2023-04-27T18:16:41.501Z,15.28
2023-04-27T18:19:26.218Z,15.41
2023-04-27T18:22:11.230Z,15.39
2023-04-27T18:24:56.088Z,15.22
2023-04-27T18:27:41.133Z,14.90
2023-04-27T18:30:26.097Z,14.96
2023-04-27T18:33:11.026Z,14.76
2023-04-27T18:35:55.716Z,14.76
2023-04-27T18:38:40.612Z,14.65
2023-04-27T18:41:25.554Z,14.67
2023-04-27T18:44:10.313Z,14.51
2023-04-27T18:46:55.316Z,14.31
2023-04-27T18:49:40.072Z,14.08
2023-04-27T18:52:24.981Z,13.92
2023-04-27T18:55:09.793Z,13.62
2023-04-27T18:57:54.827Z,13.60
2023-04-27T19:00:39.739Z,13.14
2023-04-27T19:03:24.752Z,12.86
2023-04-27T19:06:09.569Z,13.06
2023-04-27T19:08:54.403Z,13.34
2023-04-27T19:11:40.125Z,13.47
2023-04-27T19:14:24.783Z,12.90
2023-04-27T19:17:09.891Z,12.85
2023-04-27T19:19:54.603Z,12.60
2023-04-27T19:22:39.667Z,13.08
2023-04-27T19:25:24.749Z,13.10
2023-04-27T19:28:09.468Z,12.89
2023-04-27T19:30:54.531Z,12.65
2023-04-27T19:33:46.741Z,12.69
2023-04-27T19:36:32.159Z,12.89
2023-04-27T19:39:17.005Z,13.15
2023-04-27T19:42:01.851Z,13.05
2023-04-27T19:44:46.679Z,13.36
2023-04-27T19:47:31.492Z,13.37
2023-04-27T19:50:16.290Z,13.28
2023-04-27T19:53:01.194Z,13.37
2023-04-27T19:55:46.118Z,13.30
2023-04-27T19:58:31.195Z,13.26
2023-04-27T20:01:15.970Z,13.31
2023-04-27T20:04:01.081Z,13.21
2023-04-27T20:06:45.721Z,12.96
2023-04-27T20:09:30.746Z,12.57
2023-04-27T20:12:34.976Z,12.40
2023-04-27T20:15:19.910Z,12.39
2023-04-27T20:18:05.076Z,12.63
2023-04-27T20:20:49.901Z,12.27
2023-04-27T20:23:34.754Z,12.72
2023-04-27T20:26:19.623Z,13.06
2023-04-27T20:29:04.528Z,12.65
2023-04-27T20:31:49.503Z,12.81
2023-04-27T20:34:34.380Z,12.60
2023-04-27T20:37:19.284Z,12.72
2023-04-27T20:40:04.154Z,12.85
2023-04-27T20:42:49.328Z,12.77
2023-04-27T20:45:34.634Z,13.05
2023-04-27T20:48:19.459Z,13.10
2023-04-27T20:51:04.408Z,13.26
2023-04-27T20:53:49.250Z,13.23
2023-04-27T20:56:34.197Z,13.35
2023-04-27T20:59:18.927Z,13.50
